createdAt,value
2023-02-15T00:01:39.757Z,102314.20
2023-02-15T00:05:03.620Z,102315.35
2023-02-15T00:08:27.791Z,102319.02
2023-02-15T00:11:51.598Z,102318.63
2023-02-15T00:15:15.442Z,102318.27
2023-02-15T00:18:41.060Z,102312.67
2023-02-15T00:22:05.891Z,102309.24
2023-02-15T00:25:30.060Z,102315.52
2023-02-15T00:28:54.820Z,102314.27
2023-02-15T00:32:18.654Z,102314.58
2023-02-15T00:35:42.460Z,102311.77
2023-02-15T00:39:06.914Z,102305.46
2023-02-15T00:42:30.173Z,102302.25
2023-02-15T00:45:53.792Z,102301.39
2023-02-15T00:49:17.391Z,102301.68
2023-02-15T00:52:40.920Z,102299.09
2023-02-15T00:56:05.048Z,102297.83
2023-02-15T00:59:29.123Z,102294.89
2023-02-15T01:02:52.859Z,102292.27
2023-02-15T01:06:19.656Z,102291.23
2023-02-15T01:09:44.593Z,102290.01
2023-02-15T01:13:08.685Z,102289.52
2023-02-15T01:16:34.261Z,102286.95
2023-02-15T01:19:59.782Z,102288.00
2023-02-15T01:23:23.256Z,102287.20
2023-02-15T01:26:46.861Z,102284.53
2023-02-15T01:30:12.434Z,102280.68
2023-02-15T01:33:36.988Z,102279.78
2023-02-15T01:37:00.250Z,102270.23
2023-02-15T01:40:25.009Z,102260.59
2023-02-15T01:43:52.410Z,102257.40
2023-02-15T01:47:21.262Z,102255.92
2023-02-15T01:50:49.291Z,102249.25
2023-02-15T01:54:20.783Z,102249.95
2023-02-15T01:57:48.709Z,102248.25
2023-02-15T02:01:12.438Z,102246.17
2023-02-15T02:04:44.631Z,102240.48
2023-02-15T02:08:10.240Z,102239.08
2023-02-15T02:11:35.232Z,102235.80
2023-02-15T02:15:00.080Z,102234.58
2023-02-15T02:18:40.415Z,102235.77
2023-02-15T02:22:43.961Z,102231.14
2023-02-15T02:26:52.175Z,102233.70
2023-02-15T02:30:46.403Z,102231.83
2023-02-15T02:34:18.689Z,102232.93
2023-02-15T02:37:52.738Z,102228.71
2023-02-15T02:41:26.378Z,102229.13
2023-02-15T02:44:55.660Z,102226.81
2023-02-15T02:48:24.467Z,102228.39
2023-02-15T02:51:48.301Z,102229.99
2023-02-15T02:55:20.955Z,102228.30
2023-02-15T02:58:51.657Z,102226.23
2023-02-15T03:02:19.620Z,102222.30
2023-02-15T03:05:47.226Z,102217.80
2023-02-15T03:09:18.364Z,102216.03
2023-02-15T03:12:43.046Z,102211.04
2023-02-15T03:16:29.215Z,102212.05
2023-02-15T03:19:56.689Z,102209.42
2023-02-15T03:23:26.148Z,102212.13
2023-02-15T03:26:52.932Z,102209.16
2023-02-15T03:30:19.888Z,102205.00
2023-02-15T03:33:56.093Z,102201.20
2023-02-15T03:37:30.034Z,102202.70
2023-02-15T03:41:11.368Z,102197.41
2023-02-15T03:44:44.317Z,102200.72
2023-02-15T03:48:09.358Z,102200.73
2023-02-15T03:51:40.176Z,102194.21
2023-02-15T03:55:03.375Z,102200.23
2023-02-15T03:58:45.129Z,102201.50
2023-02-15T04:02:25.866Z,102204.44
2023-02-15T04:05:49.201Z,102205.83
2023-02-15T04:09:29.470Z,102205.46
2023-02-15T04:12:52.768Z,102207.23
2023-02-15T04:16:17.003Z,102196.89
2023-02-15T04:19:58.677Z,102196.86
2023-02-15T04:23:40.099Z,102194.02
2023-02-15T04:27:07.218Z,102198.08
2023-02-15T04:30:30.536Z,102194.79
2023-02-15T04:33:53.850Z,102194.94
2023-02-15T04:37:16.249Z,102194.23
2023-02-15T04:40:39.836Z,102189.93
2023-02-15T04:44:02.122Z,102185.45
2023-02-15T04:47:26.108Z,102186.14
2023-02-15T04:50:49.031Z,102183.78
2023-02-15T04:54:11.329Z,102178.36
2023-02-15T04:57:33.422Z,102174.64
2023-02-15T05:00:57.067Z,102176.96
2023-02-15T05:04:19.365Z,102173.13
2023-02-15T05:07:41.411Z,102168.23
2023-02-15T05:11:03.569Z,102169.14
2023-02-15T05:14:25.792Z,102174.88
2023-02-15T05:17:49.845Z,102175.42
2023-02-15T05:21:14.173Z,102174.56
2023-02-15T05:24:55.375Z,102178.67
2023-02-15T05:28:20.173Z,102177.96
2023-02-15T05:31:42.704Z,102177.35
2023-02-15T05:35:06.046Z,102178.29
2023-02-15T05:38:28.364Z,102177.08
2023-02-15T05:41:54.574Z,102177.70
2023-02-15T05:45:20.629Z,102178.96
2023-02-15T05:48:43.227Z,102179.35
2023-02-15T05:52:08.828Z,102181.14
2023-02-15T05:55:31.762Z,102180.72
2023-02-15T05:58:55.196Z,102177.73
2023-02-15T06:02:19.210Z,102176.66
2023-02-15T06:05:41.829Z,102176.30
2023-02-15T06:09:04.308Z,102177.29
2023-02-15T06:12:27.219Z,102176.77
2023-02-15T06:15:50.215Z,102174.05
2023-02-15T06:19:12.790Z,102172.16
2023-02-15T06:22:37.525Z,102172.82
2023-02-15T06:26:01.602Z,102175.75
2023-02-15T06:29:25.494Z,102179.90
2023-02-15T06:32:47.901Z,102179.42
2023-02-15T06:36:13.278Z,102176.29
2023-02-15T06:39:35.398Z,102174.30
2023-02-15T06:42:58.473Z,102168.70
2023-02-15T06:46:21.279Z,102169.15
2023-02-15T06:49:44.142Z,102168.59
2023-02-15T06:53:06.561Z,102170.39
2023-02-15T06:56:28.822Z,102168.58
2023-02-15T06:59:51.141Z,102168.43
2023-02-15T07:03:15.752Z,102165.71
2023-02-15T07:06:37.894Z,102159.92
2023-02-15T07:09:59.975Z,102156.88
2023-02-15T07:13:22.037Z,102154.14
2023-02-15T07:16:44.209Z,102145.42
2023-02-15T07:20:08.393Z,102139.42
2023-02-15T07:23:30.917Z,102134.97
2023-02-15T07:26:53.473Z,102137.03
2023-02-15T07:30:16.365Z,102136.86
2023-02-15T07:33:39.079Z,102139.77
2023-02-15T07:37:01.115Z,102138.92
2023-02-15T07:40:23.964Z,102136.23
2023-02-15T07:43:46.913Z,102137.95
2023-02-15T07:47:09.675Z,102136.09
2023-02-15T07:50:32.125Z,102135.42
2023-02-15T07:53:54.815Z,102131.36
2023-02-15T07:57:17.112Z,102129.98
2023-02-15T08:00:53.655Z,102125.19
2023-02-15T08:04:16.938Z,102119.70
2023-02-15T08:07:39.539Z,102115.59
2023-02-15T08:11:20.769Z,102111.52
2023-02-15T08:14:42.971Z,102101.63
2023-02-15T08:18:05.321Z,102092.08
2023-02-15T08:21:28.839Z,102090.57
2023-02-15T08:24:51.217Z,102087.04
2023-02-15T08:28:13.446Z,102080.93
2023-02-15T08:31:37.924Z,102080.66
2023-02-15T08:35:00.257Z,102081.05
2023-02-15T08:38:22.195Z,102079.57
2023-02-15T08:41:51.366Z,102078.60
2023-02-15T08:45:14.103Z,102074.87
2023-02-15T08:48:36.531Z,102068.36
2023-02-15T08:51:59.112Z,102066.30
2023-02-15T08:55:21.673Z,102063.06
2023-02-15T08:58:44.294Z,102055.70
2023-02-15T09:02:06.730Z,102055.54
2023-02-15T09:05:29.174Z,102052.46
2023-02-15T09:08:51.403Z,102049.56
2023-02-15T09:12:13.910Z,102050.09
2023-02-15T09:15:37.843Z,102049.41
2023-02-15T09:19:01.925Z,102042.35
2023-02-15T09:22:24.482Z,102049.27
2023-02-15T09:25:47.134Z,102048.42
2023-02-15T09:29:10.072Z,102047.23
2023-02-15T09:32:32.525Z,102051.20
2023-02-15T09:35:54.455Z,102043.98
2023-02-15T09:39:17.560Z,102044.85
2023-02-15T09:42:55.412Z,102047.97
2023-02-15T09:46:24.397Z,102041.96
2023-02-15T09:49:52.225Z,102031.70
2023-02-15T09:53:22.772Z,102021.55
2023-02-15T09:56:49.289Z,102027.77
2023-02-15T10:00:17.538Z,102025.06
2023-02-15T10:03:43.981Z,102020.95
2023-02-15T10:07:14.776Z,102015.63
2023-02-15T10:10:45.737Z,102010.48
2023-02-15T10:14:18.673Z,102012.02
2023-02-15T10:17:52.485Z,102007.56
2023-02-15T10:21:22.683Z,102010.31
2023-02-15T10:24:53.706Z,102004.98
2023-02-15T10:28:20.879Z,102005.67
2023-02-15T10:31:49.021Z,102003.43
2023-02-15T10:35:18.093Z,102001.89
2023-02-15T10:38:43.826Z,102000.00
2023-02-15T10:42:13.146Z,101998.45
2023-02-15T10:45:46.428Z,101988.82
2023-02-15T10:49:25.047Z,101986.08
2023-02-15T10:52:58.638Z,101988.65
2023-02-15T10:56:28.019Z,101989.68
2023-02-15T11:00:06.933Z,101986.06
2023-02-15T11:03:42.211Z,101980.76
2023-02-15T11:07:15.464Z,101979.89
2023-02-15T11:10:40.690Z,101975.42
2023-02-15T11:14:09.985Z,101969.23
2023-02-15T11:17:39.027Z,101962.89
2023-02-15T11:21:04.765Z,101959.61
2023-02-15T11:24:30.788Z,101953.77
2023-02-15T11:27:57.341Z,101951.89
2023-02-15T11:31:21.731Z,101948.11
2023-02-15T11:34:49.364Z,101941.74
2023-02-15T11:38:16.926Z,101933.49
2023-02-15T11:41:42.571Z,101931.92
2023-02-15T11:45:08.433Z,101926.77
2023-02-15T11:48:31.365Z,101925.23
2023-02-15T11:51:54.439Z,101924.19
2023-02-15T11:55:20.754Z,101918.33
2023-02-15T11:58:45.996Z,101918.31
2023-02-15T12:02:16.202Z,101923.65
2023-02-15T12:05:41.961Z,101922.63
2023-02-15T12:09:07.828Z,101914.02
2023-02-15T12:12:32.147Z,101911.95
2023-02-15T12:15:55.528Z,101905.23
2023-02-15T12:19:30.058Z,101900.41
2023-02-15T12:22:54.540Z,101899.71
2023-02-15T12:26:24.496Z,101896.11
2023-02-15T12:29:48.506Z,101890.95
2023-02-15T12:33:16.250Z,101888.73
2023-02-15T12:36:46.952Z,101883.21
2023-02-15T12:40:21.053Z,101878.40
2023-02-15T12:43:43.749Z,101876.66
2023-02-15T12:47:07.737Z,101869.59
2023-02-15T12:50:36.338Z,101864.95
2023-02-15T12:54:01.494Z,101864.92
2023-02-15T12:57:26.448Z,101857.87
2023-02-15T13:00:49.025Z,101854.42
2023-02-15T13:04:19.838Z,101850.98
2023-02-15T13:07:50.122Z,101843.58
2023-02-15T13:11:12.934Z,101840.83
2023-02-15T13:14:35.676Z,101837.52
2023-02-15T13:18:03.044Z,101833.98
2023-02-15T13:21:27.931Z,101828.56
2023-02-15T13:24:55.778Z,101828.86
2023-02-15T13:28:19.799Z,101829.55
2023-02-15T13:31:43.447Z,101833.63
2023-02-15T13:35:16.387Z,101828.09
2023-02-15T13:38:47.477Z,101818.81
2023-02-15T13:42:21.644Z,101819.19
2023-02-15T13:45:54.950Z,101816.66
2023-02-15T13:49:25.771Z,101818.41
2023-02-15T13:52:52.904Z,101819.98
2023-02-15T13:56:19.665Z,101817.60
2023-02-15T13:59:47.351Z,101816.45
2023-02-15T14:03:24.180Z,101804.64
2023-02-15T14:07:00.561Z,101799.66
2023-02-15T14:10:34.761Z,101795.05
2023-02-15T14:14:12.974Z,101790.02
2023-02-15T14:17:42.787Z,101788.64
2023-02-15T14:21:09.048Z,101791.01
2023-02-15T14:24:35.550Z,101792.90
2023-02-15T14:28:04.943Z,101792.20
2023-02-15T14:31:31.845Z,101790.64
2023-02-15T14:34:57.039Z,101790.79
2023-02-15T14:38:24.121Z,101786.65
2023-02-15T14:41:49.214Z,101791.30
2023-02-15T14:45:18.396Z,101788.17
2023-02-15T14:48:46.920Z,101782.81
2023-02-15T14:52:12.941Z,101775.58
2023-02-15T14:55:38.785Z,101770.42
2023-02-15T14:59:10.552Z,101763.75
2023-02-15T15:02:43.231Z,101764.14
2023-02-15T15:06:07.038Z,101757.48
2023-02-15T15:09:31.453Z,101749.27
2023-02-15T15:12:55.144Z,101752.57
2023-02-15T15:16:32.226Z,101750.38
2023-02-15T15:20:03.679Z,101746.30
2023-02-15T15:23:43.377Z,101744.95
2023-02-15T15:27:27.042Z,101742.59
2023-02-15T15:30:52.799Z,101739.14
2023-02-15T15:34:29.208Z,101736.77
2023-02-15T15:38:07.308Z,101733.52
2023-02-15T15:41:41.037Z,101729.23
2023-02-15T15:45:23.728Z,101731.13
2023-02-15T15:48:47.101Z,101734.93
2023-02-15T15:52:14.284Z,101732.52
2023-02-15T15:55:36.597Z,101724.47
2023-02-15T15:59:01.211Z,101716.23
2023-02-15T16:02:24.170Z,101709.55
2023-02-15T16:05:46.699Z,101707.48
2023-02-15T16:09:18.574Z,101706.78
2023-02-15T16:12:41.880Z,101703.52
2023-02-15T16:16:08.982Z,101700.27
2023-02-15T16:19:33.691Z,101702.67
2023-02-15T16:23:06.786Z,101698.02
2023-02-15T16:26:45.734Z,101693.91
2023-02-15T16:30:19.935Z,101689.61
2023-02-15T16:33:43.825Z,101675.88
2023-02-15T16:37:17.427Z,101670.56
2023-02-15T16:40:42.405Z,101671.92
2023-02-15T16:44:07.669Z,101674.34
2023-02-15T16:47:31.941Z,101676.27
2023-02-15T16:50:57.527Z,101670.42
2023-02-15T16:54:21.720Z,101662.02
2023-02-15T16:57:44.796Z,101658.95
2023-02-15T17:01:10.095Z,101658.09
2023-02-15T17:04:35.431Z,101649.35
2023-02-15T17:08:13.176Z,101640.58
2023-02-15T17:11:36.473Z,101637.67
2023-02-15T17:15:00.237Z,101634.77
2023-02-15T17:18:24.710Z,101631.16
2023-02-15T17:21:50.511Z,101627.58
2023-02-15T17:25:20.322Z,101627.22
2023-02-15T17:28:48.274Z,101638.04
2023-02-15T17:32:17.113Z,101641.98
2023-02-15T17:35:42.229Z,101642.52
2023-02-15T17:39:08.384Z,101644.73
2023-02-15T17:42:33.545Z,101644.21
2023-02-15T17:45:58.094Z,101639.08
2023-02-15T17:49:29.848Z,101638.55
2023-02-15T17:52:56.071Z,101633.41
2023-02-15T17:56:23.170Z,101636.49
2023-02-15T18:00:05.205Z,101631.34
2023-02-15T18:03:57.953Z,101624.83
2023-02-15T18:07:40.817Z,101625.69
2023-02-15T18:11:22.254Z,101627.40
2023-02-15T18:14:44.665Z,101628.26
2023-02-15T18:18:10.492Z,101630.84
2023-02-15T18:21:33.607Z,101629.12
2023-02-15T18:24:55.889Z,101635.13
2023-02-15T18:28:18.668Z,101634.45
2023-02-15T18:31:42.503Z,101634.27
2023-02-15T18:35:05.445Z,101634.78
2023-02-15T18:38:28.222Z,101632.89
2023-02-15T18:41:50.811Z,101631.36
2023-02-15T18:45:16.430Z,101636.15
2023-02-15T18:48:39.334Z,101633.41
2023-02-15T18:52:05.265Z,101632.37
2023-02-15T18:55:29.637Z,101626.38
2023-02-15T18:58:52.351Z,101619.50
2023-02-15T19:02:17.936Z,101618.64
2023-02-15T19:05:44.330Z,101610.23
2023-02-15T19:09:10.149Z,101604.21
2023-02-15T19:12:34.836Z,101605.91
2023-02-15T19:16:01.639Z,101592.02
2023-02-15T19:19:27.704Z,101594.05
2023-02-15T19:22:53.086Z,101590.79
2023-02-15T19:26:25.687Z,101587.34
2023-02-15T19:29:51.931Z,101574.13
2023-02-15T19:33:18.862Z,101572.05
2023-02-15T19:36:41.564Z,101564.32
2023-02-15T19:40:05.845Z,101553.68
2023-02-15T19:43:29.744Z,101551.79
2023-02-15T19:46:54.117Z,101549.05
2023-02-15T19:50:17.708Z,101546.83
2023-02-15T19:53:41.604Z,101541.86
2023-02-15T19:57:04.229Z,101531.41
2023-02-15T20:00:27.987Z,101524.23
2023-02-15T20:03:51.529Z,101520.98
2023-02-15T20:07:21.711Z,101518.26
2023-02-15T20:10:45.071Z,101511.75
2023-02-15T20:14:12.651Z,101510.05
2023-02-15T20:17:35.816Z,101511.60
2023-02-15T20:21:01.738Z,101511.42
2023-02-15T20:24:28.283Z,101511.95
2023-02-15T20:27:51.215Z,101515.37
2023-02-15T20:31:16.157Z,101511.60
2023-02-15T20:34:41.985Z,101517.23
2023-02-15T20:38:05.595Z,101511.58
2023-02-15T20:41:37.516Z,101511.39
2023-02-15T20:44:59.849Z,101509.31
2023-02-15T20:48:23.432Z,101503.98
2023-02-15T20:51:47.613Z,101507.58
2023-02-15T20:55:16.143Z,101502.77
2023-02-15T20:58:41.552Z,101497.77
2023-02-15T21:02:15.167Z,101488.68
2023-02-15T21:05:40.438Z,101480.45
2023-02-15T21:09:03.563Z,101472.05
2023-02-15T21:12:26.673Z,101469.46
2023-02-15T21:15:49.628Z,101469.27
2023-02-15T21:19:15.712Z,101468.06
2023-02-15T21:22:39.882Z,101465.33
2023-02-15T21:26:02.506Z,101459.67
2023-02-15T21:29:26.182Z,101452.29
2023-02-15T21:32:48.310Z,101451.77
2023-02-15T21:36:14.873Z,101450.91
2023-02-15T21:39:37.062Z,101450.40
2023-02-15T21:43:17.928Z,101444.58
2023-02-15T21:46:58.157Z,101447.65
2023-02-15T21:50:40.456Z,101438.96
2023-02-15T21:54:03.642Z,101433.86
2023-02-15T21:57:25.901Z,101434.20
2023-02-15T22:00:49.102Z,101442.11
2023-02-15T22:04:14.491Z,101438.67
2023-02-15T22:07:36.683Z,101439.55
2023-02-15T22:10:59.062Z,101434.93
2023-02-15T22:14:34.751Z,101429.13
2023-02-15T22:17:58.250Z,101431.36
2023-02-15T22:21:21.826Z,101436.84
2023-02-15T22:24:45.705Z,101436.15
2023-02-15T22:28:16.230Z,101431.52
2023-02-15T22:31:39.413Z,101423.13
2023-02-15T22:35:01.779Z,101422.08
2023-02-15T22:38:24.497Z,101419.83
2023-02-15T22:41:49.683Z,101415.86
2023-02-15T22:45:16.079Z,101410.19
2023-02-15T22:48:39.368Z,101409.48
2023-02-15T22:52:02.584Z,101407.25
2023-02-15T22:55:26.788Z,101400.90
2023-02-15T22:58:49.946Z,101406.52
2023-02-15T23:02:14.563Z,101405.47
2023-02-15T23:05:37.568Z,101400.52
2023-02-15T23:09:00.278Z,101398.61
2023-02-15T23:12:25.140Z,101398.08
2023-02-15T23:15:49.243Z,101400.11
2023-02-15T23:19:12.883Z,101399.92
2023-02-15T23:22:35.530Z,101397.01
2023-02-15T23:25:58.382Z,101394.09
2023-02-15T23:29:22.396Z,101389.83
2023-02-15T23:32:45.998Z,101386.44
2023-02-15T23:36:20.477Z,101380.12
2023-02-15T23:40:00.844Z,101379.12
2023-02-15T23:43:23.198Z,101374.54
2023-02-15T23:46:47.037Z,101370.11
2023-02-15T23:50:18.367Z,101367.58
2023-02-15T23:53:42.738Z,101368.97
2023-02-15T23:57:08.371Z,101366.76
